createdAt,value
2019-03-28T00:00:31.181Z,96474.09
2019-03-28T00:02:59.858Z,96475.48
2019-03-28T00:05:28.769Z,96468.98
2019-03-28T00:07:58.156Z,96469.38
2019-03-28T00:10:26.984Z,96468.30
2019-03-28T00:12:55.637Z,96466.81
2019-03-28T00:15:24.245Z,96473.17
2019-03-28T00:17:52.830Z,96463.36
2019-03-28T00:20:21.615Z,96465.87
2019-03-28T00:22:51.801Z,96468.47
2019-03-28T00:25:21.319Z,96472.14
2019-03-28T00:27:49.887Z,96467.13
2019-03-28T00:30:20.129Z,96469.72
2019-03-28T00:32:48.672Z,96468.92
2019-03-28T00:35:17.284Z,96468.06
2019-03-28T00:37:45.832Z,96465.55
2019-03-28T00:40:14.442Z,96456.99
2019-03-28T00:42:51.654Z,96459.67
2019-03-28T00:45:20.123Z,96452.36
2019-03-28T00:47:48.671Z,96457.78
2019-03-28T00:50:17.381Z,96454.82
2019-03-28T00:52:45.943Z,96458.72
2019-03-28T00:55:14.561Z,96456.21
2019-03-28T00:57:43.131Z,96454.95
2019-03-28T01:00:12.644Z,96444.92
2019-03-28T01:02:41.347Z,96450.34
2019-03-28T01:05:10.463Z,96448.08
2019-03-28T01:07:38.952Z,96453.41
2019-03-28T01:10:08.066Z,96451.61
2019-03-28T01:12:36.674Z,96450.36
2019-03-28T01:15:07.591Z,96443.91
2019-03-28T01:17:36.196Z,96448.92
2019-03-28T01:20:06.786Z,96446.73
2019-03-28T01:22:35.324Z,96445.96
2019-03-28T01:25:04.142Z,96448.22
2019-03-28T01:27:32.793Z,96442.17
2019-03-28T01:30:01.403Z,96446.42
2019-03-28T01:32:30.034Z,96446.34
2019-03-28T01:34:58.696Z,96446.28
2019-03-28T01:37:27.317Z,96445.80
2019-03-28T01:39:55.858Z,96448.30
2019-03-28T01:42:24.504Z,96449.41
2019-03-28T01:44:53.187Z,96447.61
2019-03-28T01:47:21.879Z,96451.05
2019-03-28T01:49:50.515Z,96443.84
2019-03-28T01:52:19.190Z,96440.07
2019-03-28T01:54:47.799Z,96445.31
2019-03-28T01:57:16.307Z,96442.03
2019-03-28T01:59:44.915Z,96445.80
2019-03-28T02:02:13.634Z,96443.04
2019-03-28T02:04:42.244Z,96442.96
2019-03-28T02:07:12.102Z,96448.30
2019-03-28T02:09:40.629Z,96448.68
2019-03-28T02:12:09.252Z,96447.29
2019-03-28T02:14:38.300Z,96443.58
2019-03-28T02:17:07.172Z,96447.13
2019-03-28T02:19:35.881Z,96437.77
2019-03-28T02:22:04.471Z,96443.59
2019-03-28T02:24:33.125Z,96434.14
2019-03-28T02:27:01.949Z,96428.97
2019-03-28T02:29:30.562Z,96424.48
2019-03-28T02:31:59.224Z,96426.42
2019-03-28T02:34:27.766Z,96430.05
2019-03-28T02:36:56.382Z,96430.72
2019-03-28T02:39:25.123Z,96432.92
2019-03-28T02:41:53.796Z,96427.66
2019-03-28T02:44:22.332Z,96426.22
2019-03-28T02:46:50.835Z,96425.19
2019-03-28T02:49:19.939Z,96422.04
2019-03-28T02:51:48.730Z,96427.65
2019-03-28T02:54:17.273Z,96422.80
2019-03-28T02:56:45.920Z,96427.87
2019-03-28T02:59:14.727Z,96424.19
2019-03-28T03:01:43.435Z,96424.58
2019-03-28T03:04:12.145Z,96430.02
2019-03-28T03:06:40.741Z,96425.12
2019-03-28T03:09:10.264Z,96420.80
2019-03-28T03:11:42.549Z,96421.70
2019-03-28T03:14:09.290Z,96419.75
2019-03-28T03:16:37.941Z,96426.08
2019-03-28T03:19:06.574Z,96424.05
2019-03-28T03:21:36.102Z,96421.14
2019-03-28T03:24:05.244Z,96421.75
2019-03-28T03:26:33.858Z,96426.14
2019-03-28T03:29:02.441Z,96417.80
2019-03-28T03:31:31.082Z,96421.70
2019-03-28T03:33:59.719Z,96416.83
2019-03-28T03:36:28.325Z,96414.84
2019-03-28T03:38:59.358Z,96414.20
2019-03-28T03:41:27.282Z,96412.54
2019-03-28T03:43:56.124Z,96411.33
2019-03-28T03:46:24.879Z,96414.41
2019-03-28T03:48:53.427Z,96412.02
2019-03-28T03:51:22.128Z,96415.47
2019-03-28T03:53:50.858Z,96408.38
2019-03-28T03:56:19.511Z,96408.00
2019-03-28T03:58:48.062Z,96405.48
2019-03-28T04:01:16.708Z,96402.25
2019-03-28T04:03:45.305Z,96402.25
2019-03-28T04:06:14.240Z,96406.47
2019-03-28T04:08:45.080Z,96400.98
2019-03-28T04:11:13.246Z,96400.98
2019-03-28T04:13:42.029Z,96404.36
2019-03-28T04:16:10.715Z,96405.53
2019-03-28T04:18:39.955Z,96399.25
2019-03-28T04:21:08.963Z,96399.33
2019-03-28T04:23:37.567Z,96404.03
2019-03-28T04:26:06.585Z,96403.63
2019-03-28T04:28:35.250Z,96401.92
2019-03-28T04:31:03.946Z,96400.79
2019-03-28T04:33:33.922Z,96407.28
2019-03-28T04:36:02.589Z,96403.59
2019-03-28T04:38:31.507Z,96400.34
2019-03-28T04:41:00.401Z,96399.61
2019-03-28T04:43:29.411Z,96395.56
2019-03-28T04:45:57.959Z,96399.34
2019-03-28T04:48:27.271Z,96397.42
2019-03-28T04:50:56.272Z,96404.80
2019-03-28T04:53:25.043Z,96410.73
2019-03-28T04:55:53.959Z,96405.38
2019-03-28T04:58:23.304Z,96408.42
2019-03-28T05:00:52.664Z,96411.54
2019-03-28T05:03:21.339Z,96412.47
2019-03-28T05:05:49.993Z,96408.38
2019-03-28T05:08:18.700Z,96401.34
2019-03-28T05:10:47.486Z,96400.61
2019-03-28T05:13:16.582Z,96395.25
2019-03-28T05:15:45.470Z,96403.53
2019-03-28T05:18:14.151Z,96404.67
2019-03-28T05:20:42.950Z,96402.20
2019-03-28T05:23:11.724Z,96405.72
2019-03-28T05:25:40.618Z,96405.39
2019-03-28T05:28:15.720Z,96404.91
2019-03-28T05:30:39.924Z,96409.25
2019-03-28T05:33:08.651Z,96409.44
2019-03-28T05:35:37.393Z,96411.42
2019-03-28T05:38:06.077Z,96406.70
2019-03-28T05:40:34.864Z,96413.78
2019-03-28T05:43:03.518Z,96412.05
2019-03-28T05:45:32.192Z,96400.17
2019-03-28T05:48:00.773Z,96405.80
2019-03-28T05:50:29.441Z,96409.48
2019-03-28T05:52:58.045Z,96400.73
2019-03-28T05:55:26.720Z,96408.41
2019-03-28T05:57:55.289Z,96407.14
2019-03-28T06:00:23.916Z,96411.15
2019-03-28T06:02:52.523Z,96412.03
2019-03-28T06:05:21.109Z,96408.52
2019-03-28T06:07:49.802Z,96405.17
2019-03-28T06:10:18.728Z,96408.19
2019-03-28T06:12:47.344Z,96406.03
2019-03-28T06:15:16.067Z,96402.99
2019-03-28T06:17:44.653Z,96400.86
2019-03-28T06:20:13.295Z,96401.30
2019-03-28T06:22:41.836Z,96407.04
2019-03-28T06:25:10.536Z,96395.86
2019-03-28T06:27:39.155Z,96401.13
2019-03-28T06:30:09.376Z,96396.58
2019-03-28T06:32:43.200Z,96405.84
2019-03-28T06:35:08.491Z,96400.20
2019-03-28T06:37:37.124Z,96399.93
2019-03-28T06:40:07.267Z,96403.75
2019-03-28T06:42:35.902Z,96404.28
2019-03-28T06:45:06.725Z,96410.75
2019-03-28T06:47:35.413Z,96409.14
2019-03-28T06:50:05.590Z,96407.60
2019-03-28T06:52:34.122Z,96401.38
2019-03-28T06:55:02.737Z,96404.47
2019-03-28T06:57:31.250Z,96406.77
2019-03-28T06:59:59.815Z,96409.46
2019-03-28T07:02:28.438Z,96407.55
2019-03-28T07:04:56.964Z,96406.52
2019-03-28T07:07:26.966Z,96404.33
2019-03-28T07:09:57.077Z,96402.41
2019-03-28T07:12:25.748Z,96402.76
2019-03-28T07:14:55.072Z,96396.30
2019-03-28T07:17:23.683Z,96394.13
2019-03-28T07:19:52.305Z,96402.98
2019-03-28T07:22:20.781Z,96395.56
2019-03-28T07:24:49.269Z,96396.99
2019-03-28T07:27:17.831Z,96397.91
2019-03-28T07:29:51.182Z,96395.47
2019-03-28T07:32:16.773Z,96399.39
2019-03-28T07:34:45.333Z,96397.77
2019-03-28T07:37:13.942Z,96407.16
2019-03-28T07:39:42.681Z,96407.64
2019-03-28T07:42:11.464Z,96407.28
2019-03-28T07:44:40.188Z,96408.61
2019-03-28T07:47:08.814Z,96413.68
2019-03-28T07:49:37.785Z,96415.38
2019-03-28T07:52:06.642Z,96419.19
2019-03-28T07:54:35.185Z,96421.70
2019-03-28T07:57:03.797Z,96422.52
2019-03-28T07:59:32.327Z,96421.70
2019-03-28T08:02:00.873Z,96425.16
2019-03-28T08:04:29.406Z,96427.07
2019-03-28T08:06:57.869Z,96414.06
2019-03-28T08:09:36.122Z,96413.52
2019-03-28T08:11:56.742Z,96416.28
2019-03-28T08:14:25.217Z,96416.59
2019-03-28T08:16:53.818Z,96418.57
2019-03-28T08:19:22.426Z,96419.56
2019-03-28T08:21:50.958Z,96412.47
2019-03-28T08:24:19.579Z,96408.98
2019-03-28T08:26:48.107Z,96418.30
2019-03-28T08:29:16.700Z,96420.61
2019-03-28T08:31:47.182Z,96420.84
2019-03-28T08:34:15.792Z,96420.60
2019-03-28T08:36:45.225Z,96417.44
2019-03-28T08:39:14.730Z,96422.33
2019-03-28T08:41:48.740Z,96424.67
2019-03-28T08:44:16.809Z,96421.11
2019-03-28T08:46:45.382Z,96420.85
2019-03-28T08:49:13.992Z,96415.12
2019-03-28T08:51:42.535Z,96413.13
2019-03-28T08:54:11.233Z,96413.70
2019-03-28T08:56:39.830Z,96413.36
2019-03-28T08:59:08.430Z,96413.36
2019-03-28T09:01:37.032Z,96421.88
2019-03-28T09:04:05.649Z,96429.52
2019-03-28T09:06:34.182Z,96429.52
2019-03-28T09:09:02.818Z,96428.47
2019-03-28T09:11:31.448Z,96434.91
2019-03-28T09:13:59.981Z,96436.49
2019-03-28T09:16:28.540Z,96443.11
2019-03-28T09:18:57.103Z,96439.98
2019-03-28T09:21:25.655Z,96449.26
2019-03-28T09:23:54.264Z,96450.16
2019-03-28T09:26:22.872Z,96448.96
2019-03-28T09:28:51.430Z,96449.26
2019-03-28T09:31:20.569Z,96444.51
2019-03-28T09:33:49.448Z,96447.02
2019-03-28T09:36:17.953Z,96439.94
2019-03-28T09:38:46.440Z,96442.99
2019-03-28T09:41:15.212Z,96445.91
2019-03-28T09:43:54.467Z,96445.45
2019-03-28T09:46:14.276Z,96447.69
2019-03-28T09:48:42.805Z,96446.42
2019-03-28T09:51:11.370Z,96448.92
2019-03-28T09:53:39.905Z,96448.50
2019-03-28T09:56:08.484Z,96443.88
2019-03-28T09:58:37.017Z,96442.81
2019-03-28T10:01:05.655Z,96439.50
2019-03-28T10:03:34.191Z,96439.63
2019-03-28T10:06:02.797Z,96437.84
2019-03-28T10:08:31.376Z,96431.17
2019-03-28T10:10:59.983Z,96429.74
2019-03-28T10:13:28.588Z,96433.25
2019-03-28T10:15:57.458Z,96429.62
2019-03-28T10:18:26.276Z,96426.44
2019-03-28T10:20:54.873Z,96422.39
2019-03-28T10:23:24.400Z,96424.88
2019-03-28T10:25:52.981Z,96424.94
2019-03-28T10:28:22.289Z,96431.05
2019-03-28T10:30:56.441Z,96424.68
2019-03-28T10:33:24.999Z,96412.59
2019-03-28T10:35:53.598Z,96417.03
2019-03-28T10:38:22.162Z,96422.09
2019-03-28T10:40:52.194Z,96414.34
2019-03-28T10:43:20.647Z,96414.50
2019-03-28T10:45:49.258Z,96407.87
2019-03-28T10:48:17.883Z,96409.65
2019-03-28T10:50:46.557Z,96404.68
2019-03-28T10:53:15.230Z,96412.47
2019-03-28T10:55:43.841Z,96402.23
2019-03-28T10:58:18.827Z,96412.44
2019-03-28T11:00:43.092Z,96417.02
2019-03-28T11:03:11.738Z,96413.71
2019-03-28T11:05:40.694Z,96419.30
2019-03-28T11:08:09.592Z,96423.09
2019-03-28T11:10:38.247Z,96417.22
2019-03-28T11:13:09.584Z,96417.75
2019-03-28T11:15:37.381Z,96419.95
2019-03-28T11:18:05.996Z,96421.67
2019-03-28T11:20:35.704Z,96419.92
2019-03-28T11:23:04.697Z,96427.32
2019-03-28T11:25:33.274Z,96429.77
2019-03-28T11:28:01.817Z,96430.25
2019-03-28T11:30:30.374Z,96427.41
2019-03-28T11:32:58.989Z,96426.60
2019-03-28T11:35:27.517Z,96429.16
2019-03-28T11:37:56.049Z,96429.10
2019-03-28T11:40:24.701Z,96437.53
2019-03-28T11:42:53.937Z,96436.59
2019-03-28T11:45:22.918Z,96435.95
2019-03-28T11:47:51.501Z,96432.06
2019-03-28T11:50:20.131Z,96436.80
2019-03-28T11:52:48.774Z,96444.03
2019-03-28T11:55:17.435Z,96448.48
2019-03-28T11:57:46.038Z,96450.82
2019-03-28T12:00:16.943Z,96450.27
2019-03-28T12:02:45.499Z,96440.92
2019-03-28T12:05:14.105Z,96453.59
2019-03-28T12:07:42.638Z,96451.02
2019-03-28T12:10:14.778Z,96455.30
2019-03-28T12:12:43.438Z,96453.73
2019-03-28T12:15:12.953Z,96455.69
2019-03-28T12:17:41.577Z,96453.89
2019-03-28T12:20:11.658Z,96455.13
2019-03-28T12:22:40.351Z,96453.00
2019-03-28T12:25:09.116Z,96459.73
2019-03-28T12:27:37.763Z,96454.34
2019-03-28T12:30:09.459Z,96459.83
2019-03-28T12:32:38.067Z,96457.95
2019-03-28T12:35:08.571Z,96451.31
2019-03-28T12:37:37.216Z,96456.33
2019-03-28T12:40:10.548Z,96454.94
2019-03-28T12:42:39.085Z,96448.45
2019-03-28T12:45:11.995Z,96450.06
2019-03-28T12:47:42.642Z,96453.80
2019-03-28T12:50:12.951Z,96454.56
2019-03-28T12:52:41.528Z,96451.55
2019-03-28T12:55:10.928Z,96450.16
2019-03-28T12:57:39.541Z,96450.11
2019-03-28T13:00:10.445Z,96449.73
2019-03-28T13:02:39.079Z,96448.88
2019-03-28T13:05:09.357Z,96443.96
2019-03-28T13:07:37.987Z,96439.50
2019-03-28T13:10:08.566Z,96437.00
2019-03-28T13:12:37.719Z,96440.97
2019-03-28T13:15:08.078Z,96438.62
2019-03-28T13:17:36.631Z,96434.52
2019-03-28T13:20:10.030Z,96436.44
2019-03-28T13:22:38.562Z,96432.30
2019-03-28T13:25:09.167Z,96423.78
2019-03-28T13:27:38.243Z,96426.08
2019-03-28T13:30:10.050Z,96429.55
2019-03-28T13:32:42.169Z,96438.89
2019-03-28T13:35:09.265Z,96434.14
2019-03-28T13:37:37.871Z,96437.86
2019-03-28T13:40:08.183Z,96431.07
2019-03-28T13:42:38.817Z,96435.70
2019-03-28T13:45:10.098Z,96439.77
2019-03-28T13:47:39.004Z,96434.17
2019-03-28T13:50:08.727Z,96442.59
2019-03-28T13:52:37.347Z,96442.05
2019-03-28T13:55:07.350Z,96443.44
2019-03-28T13:57:36.022Z,96439.23
2019-03-28T14:00:07.168Z,96437.57
2019-03-28T14:02:36.275Z,96440.66
2019-03-28T14:05:06.990Z,96437.37
2019-03-28T14:07:35.598Z,96435.84
2019-03-28T14:10:08.631Z,96436.41
2019-03-28T14:12:37.302Z,96433.50
2019-03-28T14:15:07.610Z,96431.02
2019-03-28T14:17:36.339Z,96437.06
2019-03-28T14:20:08.990Z,96436.67
2019-03-28T14:22:37.577Z,96435.33
2019-03-28T14:25:07.777Z,96440.39
2019-03-28T14:27:36.415Z,96437.75
2019-03-28T14:30:09.602Z,96437.19
2019-03-28T14:32:52.078Z,96442.64
2019-03-28T14:35:08.854Z,96441.72
2019-03-28T14:37:40.651Z,96443.73
2019-03-28T14:40:12.401Z,96444.94
2019-03-28T14:42:41.271Z,96444.09
2019-03-28T14:45:10.401Z,96445.36
2019-03-28T14:47:38.939Z,96446.63
2019-03-28T14:50:08.760Z,96449.14
2019-03-28T14:52:37.505Z,96454.20
2019-03-28T14:55:06.553Z,96448.11
2019-03-28T14:57:36.102Z,96452.20
2019-03-28T15:00:07.768Z,96450.77
2019-03-28T15:02:36.302Z,96454.08
2019-03-28T15:05:06.108Z,96457.39
2019-03-28T15:07:34.695Z,96455.20
2019-03-28T15:10:04.108Z,96454.73
2019-03-28T15:12:32.628Z,96461.94
2019-03-28T15:15:01.160Z,96463.59
2019-03-28T15:17:29.930Z,96460.16
2019-03-28T15:19:58.736Z,96457.61
2019-03-28T15:22:27.278Z,96459.73
2019-03-28T15:24:55.829Z,96460.58
2019-03-28T15:27:24.455Z,96460.16
2019-03-28T15:29:53.128Z,96460.24
2019-03-28T15:32:21.837Z,96455.23
2019-03-28T15:34:50.304Z,96461.72
2019-03-28T15:37:18.770Z,96459.59
2019-03-28T15:39:47.512Z,96460.48
2019-03-28T15:42:16.115Z,96461.80
2019-03-28T15:44:44.652Z,96458.79
2019-03-28T15:47:13.186Z,96463.80
2019-03-28T15:49:42.121Z,96469.70
2019-03-28T15:52:10.746Z,96470.08
2019-03-28T15:54:39.253Z,96479.76
2019-03-28T15:57:07.895Z,96477.17
2019-03-28T15:59:36.357Z,96479.20
2019-03-28T16:02:06.166Z,96486.45
2019-03-28T16:04:35.484Z,96487.22
2019-03-28T16:07:04.089Z,96488.45
2019-03-28T16:09:32.687Z,96485.91
2019-03-28T16:12:02.778Z,96482.05
2019-03-28T16:14:31.592Z,96479.88
2019-03-28T16:17:00.199Z,96483.66
2019-03-28T16:19:28.732Z,96486.58
2019-03-28T16:21:57.270Z,96487.38
2019-03-28T16:24:25.830Z,96486.48
2019-03-28T16:26:54.874Z,96482.59
2019-03-28T16:29:23.474Z,96482.12
2019-03-28T16:31:52.079Z,96482.45
2019-03-28T16:34:20.621Z,96480.70
2019-03-28T16:36:49.158Z,96484.44
2019-03-28T16:39:17.690Z,96488.63
2019-03-28T16:41:46.254Z,96496.91
2019-03-28T16:44:14.855Z,96504.83
2019-03-28T16:46:43.390Z,96507.69
2019-03-28T16:49:11.928Z,96505.90
2019-03-28T16:51:43.318Z,96504.95
2019-03-28T16:54:10.781Z,96509.86
2019-03-28T16:56:39.393Z,96511.34
2019-03-28T16:59:08.038Z,96509.50
2019-03-28T17:01:36.575Z,96511.84
2019-03-28T17:04:05.184Z,96520.56
2019-03-28T17:06:33.860Z,96527.97
2019-03-28T17:09:04.479Z,96533.67
2019-03-28T17:11:33.167Z,96531.33
2019-03-28T17:14:01.772Z,96537.95
2019-03-28T17:16:30.321Z,96530.63
2019-03-28T17:18:58.936Z,96529.62
2019-03-28T17:21:27.578Z,96541.39
2019-03-28T17:23:56.187Z,96537.42
2019-03-28T17:26:24.835Z,96535.24
2019-03-28T17:28:53.464Z,96533.02
2019-03-28T17:31:24.062Z,96544.38
2019-03-28T17:33:52.310Z,96543.94
2019-03-28T17:36:20.844Z,96549.38
2019-03-28T17:38:49.444Z,96548.11
2019-03-28T17:41:18.077Z,96553.55
2019-03-28T17:43:46.707Z,96548.79
2019-03-28T17:46:15.325Z,96558.45
2019-03-28T17:48:43.785Z,96559.18
2019-03-28T17:51:12.321Z,96558.64
2019-03-28T17:53:40.858Z,96559.42
2019-03-28T17:56:09.395Z,96565.22
2019-03-28T17:58:38.000Z,96562.06
2019-03-28T18:01:07.217Z,96566.16
2019-03-28T18:03:35.691Z,96561.32
2019-03-28T18:06:04.646Z,96563.29
2019-03-28T18:08:33.234Z,96572.39
2019-03-28T18:11:01.810Z,96574.73
2019-03-28T18:13:32.130Z,96580.94
2019-03-28T18:16:00.820Z,96584.55
2019-03-28T18:18:29.356Z,96584.70
2019-03-28T18:20:57.957Z,96582.45
2019-03-28T18:23:26.558Z,96583.51
2019-03-28T18:25:56.826Z,96584.98
2019-03-28T18:28:25.448Z,96587.30
2019-03-28T18:30:54.083Z,96593.02
2019-03-28T18:33:22.654Z,96604.48
2019-03-28T18:35:57.019Z,96602.06
2019-03-28T18:38:21.567Z,96596.64
2019-03-28T18:40:50.115Z,96598.10
2019-03-28T18:43:18.683Z,96597.86
2019-03-28T18:45:47.293Z,96601.00
2019-03-28T18:48:27.258Z,96610.41
2019-03-28T18:50:46.027Z,96610.24
2019-03-28T18:53:14.660Z,96615.15
2019-03-28T18:55:43.287Z,96616.88
2019-03-28T18:58:11.896Z,96622.88
2019-03-28T19:00:40.538Z,96617.91
2019-03-28T19:03:09.203Z,96624.89
2019-03-28T19:05:37.769Z,96625.07
2019-03-28T19:08:08.350Z,96623.09
2019-03-28T19:10:37.689Z,96626.20
2019-03-28T19:13:08.044Z,96637.00
2019-03-28T19:15:36.682Z,96636.83
2019-03-28T19:18:05.325Z,96637.82
2019-03-28T19:20:35.913Z,96635.22
2019-03-28T19:23:06.995Z,96641.27
2019-03-28T19:25:34.813Z,96643.84
2019-03-28T19:28:03.681Z,96651.11
2019-03-28T19:30:34.043Z,96650.55
2019-03-28T19:33:02.654Z,96647.89
2019-03-28T19:35:33.180Z,96652.50
2019-03-28T19:38:03.501Z,96660.75
2019-03-28T19:40:32.280Z,96657.52
2019-03-28T19:43:01.717Z,96657.53
2019-03-28T19:45:36.146Z,96663.73
2019-03-28T19:48:05.836Z,96665.66
2019-03-28T19:50:34.432Z,96663.80
2019-03-28T19:53:03.211Z,96670.82
2019-03-28T19:55:31.752Z,96668.48
2019-03-28T19:58:00.386Z,96664.06
2019-03-28T20:00:29.112Z,96663.87
2019-03-28T20:03:00.299Z,96670.06
2019-03-28T20:05:27.890Z,96667.34
2019-03-28T20:07:56.563Z,96667.27
2019-03-28T20:10:25.239Z,96668.75
2019-03-28T20:12:53.718Z,96674.86
2019-03-28T20:15:22.330Z,96674.27
2019-03-28T20:17:50.936Z,96671.95
2019-03-28T20:20:20.938Z,96685.15
2019-03-28T20:22:49.888Z,96676.65
2019-03-28T20:25:18.492Z,96679.17
2019-03-28T20:27:47.145Z,96673.59
2019-03-28T20:30:15.750Z,96682.76
2019-03-28T20:32:44.510Z,96681.78
2019-03-28T20:35:13.613Z,96681.55
2019-03-28T20:37:42.290Z,96683.54
2019-03-28T20:40:12.196Z,96683.75
2019-03-28T20:42:40.868Z,96679.44
2019-03-28T20:45:11.143Z,96686.88
2019-03-28T20:47:40.092Z,96687.13
2019-03-28T20:50:09.411Z,96686.11
2019-03-28T20:52:37.989Z,96691.89
2019-03-28T20:55:08.033Z,96692.61
2019-03-28T20:57:36.635Z,96697.61
2019-03-28T21:00:08.761Z,96691.47
2019-03-28T21:02:37.463Z,96691.88
2019-03-28T21:05:08.624Z,96695.13
2019-03-28T21:07:37.727Z,96696.39
2019-03-28T21:10:07.160Z,96691.59
2019-03-28T21:12:35.788Z,96698.63
2019-03-28T21:15:06.710Z,96703.13
2019-03-28T21:17:35.411Z,96707.23
2019-03-28T21:20:06.046Z,96708.44
2019-03-28T21:22:34.764Z,96703.24
2019-03-28T21:25:03.545Z,96709.73
2019-03-28T21:27:32.946Z,96709.66
2019-03-28T21:30:01.881Z,96713.44
2019-03-28T21:32:30.502Z,96711.40
2019-03-28T21:34:59.145Z,96721.20
2019-03-28T21:37:27.720Z,96710.80
2019-03-28T21:39:56.410Z,96715.52
2019-03-28T21:42:25.016Z,96710.97
2019-03-28T21:44:53.623Z,96709.63
2019-03-28T21:47:22.307Z,96714.66
2019-03-28T21:49:50.932Z,96715.12
2019-03-28T21:52:19.508Z,96711.62
2019-03-28T21:54:48.232Z,96714.36
2019-03-28T21:57:16.810Z,96709.39
2019-03-28T21:59:45.410Z,96712.12
2019-03-28T22:02:14.050Z,96707.20
2019-03-28T22:04:42.524Z,96710.75
2019-03-28T22:07:11.093Z,96712.53
2019-03-28T22:09:40.047Z,96715.99
2019-03-28T22:12:08.864Z,96718.97
2019-03-28T22:14:37.409Z,96718.31
2019-03-28T22:17:05.981Z,96721.36
2019-03-28T22:19:34.539Z,96723.23
2019-03-28T22:22:03.198Z,96727.95
2019-03-28T22:24:31.868Z,96729.34
2019-03-28T22:27:00.435Z,96733.13
2019-03-28T22:29:29.091Z,96735.64
2019-03-28T22:31:57.695Z,96741.95
2019-03-28T22:34:33.278Z,96738.48
2019-03-28T22:37:03.686Z,96735.72
2019-03-28T22:39:32.764Z,96740.81
2019-03-28T22:42:01.564Z,96745.08
2019-03-28T22:44:30.058Z,96744.47
2019-03-28T22:46:58.679Z,96739.83
2019-03-28T22:49:27.304Z,96739.42
2019-03-28T22:51:55.915Z,96741.22
2019-03-28T22:54:24.378Z,96741.30
2019-03-28T22:56:52.963Z,96742.55
2019-03-28T22:59:23.157Z,96738.37
2019-03-28T23:01:51.622Z,96745.48
2019-03-28T23:04:20.304Z,96743.00
2019-03-28T23:06:48.962Z,96745.31
2019-03-28T23:09:17.675Z,96749.50
2019-03-28T23:11:46.271Z,96749.91
2019-03-28T23:14:14.902Z,96756.59
2019-03-28T23:16:43.479Z,96749.30
2019-03-28T23:19:12.286Z,96750.61
2019-03-28T23:21:41.600Z,96756.45
2019-03-28T23:24:10.477Z,96756.86
2019-03-28T23:26:39.098Z,96756.78
2019-03-28T23:29:07.825Z,96757.19
2019-03-28T23:31:36.422Z,96755.80
2019-03-28T23:34:05.072Z,96751.61
2019-03-28T23:36:34.248Z,96741.05
2019-03-28T23:39:03.054Z,96742.46
2019-03-28T23:41:31.516Z,96742.52
2019-03-28T23:44:00.180Z,96736.61
2019-03-28T23:46:28.878Z,96742.59
2019-03-28T23:48:57.486Z,96739.66
2019-03-28T23:51:26.090Z,96744.61
2019-03-28T23:53:54.679Z,96741.23
2019-03-28T23:56:23.354Z,96740.06
2019-03-28T23:58:51.959Z,96738.72
